createdAt,value
2022-11-16T00:02:23.707Z,96877.22
2022-11-16T00:04:51.739Z,96881.73
2022-11-16T00:07:19.755Z,96884.27
2022-11-16T00:09:47.850Z,96885.62
2022-11-16T00:12:15.959Z,96887.04
2022-11-16T00:14:43.946Z,96890.89
2022-11-16T00:17:11.794Z,96893.05
2022-11-16T00:19:39.630Z,96894.52
2022-11-16T00:22:07.575Z,96901.30
2022-11-16T00:24:35.599Z,96898.85
2022-11-16T00:27:03.980Z,96902.86
2022-11-16T00:29:31.930Z,96903.73
2022-11-16T00:31:59.956Z,96904.08
2022-11-16T00:34:28.912Z,96909.01
2022-11-16T00:36:57.055Z,96903.84
2022-11-16T00:39:25.364Z,96901.30
2022-11-16T00:41:53.353Z,96889.58
2022-11-16T00:44:21.602Z,96881.83
2022-11-16T00:46:49.498Z,96882.52
2022-11-16T00:49:17.758Z,96876.55
2022-11-16T00:51:45.863Z,96871.15
2022-11-16T00:54:14.206Z,96874.27
2022-11-16T00:56:42.616Z,96876.69
2022-11-16T00:59:10.548Z,96873.81
2022-11-16T01:01:38.810Z,96869.61
2022-11-16T01:04:07.821Z,96866.03
2022-11-16T01:06:37.429Z,96862.08
2022-11-16T01:09:05.499Z,96861.93
2022-11-16T01:11:52.027Z,96858.67
2022-11-16T01:14:19.970Z,96854.00
2022-11-16T01:16:50.615Z,96846.12
2022-11-16T01:19:22.838Z,96842.59
2022-11-16T01:21:59.388Z,96834.92
2022-11-16T01:24:32.466Z,96833.79
2022-11-16T01:27:00.609Z,96824.95
2022-11-16T01:29:32.467Z,96814.66
2022-11-16T01:32:01.772Z,96816.05
2022-11-16T01:34:29.838Z,96810.98
2022-11-16T01:37:04.872Z,96806.45
2022-11-16T01:39:36.127Z,96799.40
2022-11-16T01:42:05.112Z,96797.20
2022-11-16T01:44:33.124Z,96796.70
2022-11-16T01:47:20.210Z,96795.61
2022-11-16T01:49:53.080Z,96799.04
2022-11-16T01:52:30.227Z,96806.45
2022-11-16T01:54:59.118Z,96805.60
2022-11-16T01:57:38.304Z,96804.70
2022-11-16T02:00:09.642Z,96794.48
2022-11-16T02:02:48.628Z,96790.95
2022-11-16T02:05:52.692Z,96794.91
2022-11-16T02:09:08.270Z,96791.06
2022-11-16T02:11:50.275Z,96784.17
2022-11-16T02:14:53.573Z,96781.02
2022-11-16T02:17:53.461Z,96776.73
2022-11-16T02:21:05.487Z,96774.81
2022-11-16T02:23:55.582Z,96776.60
2022-11-16T02:26:32.769Z,96774.71
2022-11-16T02:29:16.411Z,96768.94
2022-11-16T02:32:09.259Z,96769.30
2022-11-16T02:34:45.281Z,96766.46
2022-11-16T02:37:17.850Z,96756.48
2022-11-16T02:39:48.419Z,96747.20
2022-11-16T02:42:22.025Z,96735.58
2022-11-16T02:44:53.078Z,96730.46
2022-11-16T02:47:26.497Z,96725.84
2022-11-16T02:50:05.430Z,96726.64
2022-11-16T02:52:33.684Z,96729.30
2022-11-16T02:55:02.243Z,96727.75
2022-11-16T02:57:46.411Z,96729.20
2022-11-16T03:01:02.344Z,96726.30
2022-11-16T03:03:43.594Z,96729.83
2022-11-16T03:06:20.950Z,96733.51
2022-11-16T03:09:01.324Z,96731.42
2022-11-16T03:11:53.254Z,96735.88
2022-11-16T03:14:26.991Z,96732.52
2022-11-16T03:16:58.402Z,96728.73
2022-11-16T03:19:37.542Z,96716.23
2022-11-16T03:22:12.467Z,96708.19
2022-11-16T03:24:41.615Z,96706.85
2022-11-16T03:27:38.516Z,96698.09
2022-11-16T03:30:24.280Z,96694.65
2022-11-16T03:32:56.988Z,96688.02
2022-11-16T03:36:11.446Z,96689.61
2022-11-16T03:38:41.442Z,96686.23
2022-11-16T03:41:12.377Z,96686.23
2022-11-16T03:43:43.182Z,96684.99
2022-11-16T03:46:12.407Z,96682.33
2022-11-16T03:48:40.839Z,96674.89
2022-11-16T03:51:14.212Z,96672.02
2022-11-16T03:53:43.715Z,96678.61
2022-11-16T03:56:12.303Z,96676.20
2022-11-16T03:58:40.381Z,96673.58
2022-11-16T04:01:08.831Z,96671.52
2022-11-16T04:03:37.134Z,96672.75
2022-11-16T04:06:24.356Z,96668.55
2022-11-16T04:09:10.959Z,96662.19
2022-11-16T04:11:58.706Z,96656.72
2022-11-16T04:14:46.092Z,96655.90
2022-11-16T04:17:36.206Z,96659.17
2022-11-16T04:20:24.554Z,96655.77
2022-11-16T04:23:20.390Z,96647.61
2022-11-16T04:25:50.599Z,96641.02
2022-11-16T04:28:34.655Z,96630.98
2022-11-16T04:31:24.425Z,96623.23
2022-11-16T04:34:17.067Z,96623.02
2022-11-16T04:37:07.062Z,96619.52
2022-11-16T04:39:34.911Z,96619.76
2022-11-16T04:42:17.349Z,96620.92
2022-11-16T04:45:05.376Z,96628.34
2022-11-16T04:47:38.560Z,96628.36
2022-11-16T04:50:07.048Z,96622.20
2022-11-16T04:52:35.735Z,96618.98
2022-11-16T04:55:04.743Z,96621.50
2022-11-16T04:57:33.458Z,96621.52
2022-11-16T05:00:01.612Z,96622.33
2022-11-16T05:02:29.668Z,96621.72
2022-11-16T05:04:59.159Z,96624.33
2022-11-16T05:07:27.780Z,96622.23
2022-11-16T05:10:03.839Z,96620.23
2022-11-16T05:12:32.087Z,96619.78
2022-11-16T05:15:02.247Z,96617.67
2022-11-16T05:17:32.565Z,96622.35
2022-11-16T05:20:19.687Z,96616.77
2022-11-16T05:22:55.280Z,96608.07
2022-11-16T05:25:24.707Z,96608.97
2022-11-16T05:27:52.818Z,96607.41
2022-11-16T05:30:21.257Z,96609.70
2022-11-16T05:32:50.455Z,96612.26
2022-11-16T05:35:20.307Z,96609.19
2022-11-16T05:37:48.373Z,96608.16
2022-11-16T05:40:19.115Z,96611.03
2022-11-16T05:42:58.102Z,96615.17
2022-11-16T05:45:27.069Z,96616.35
2022-11-16T05:47:55.372Z,96619.69
2022-11-16T05:50:23.853Z,96617.47
2022-11-16T05:53:01.871Z,96611.10
2022-11-16T05:55:30.033Z,96606.81
2022-11-16T05:57:58.248Z,96605.05
2022-11-16T06:00:26.477Z,96605.51
2022-11-16T06:02:54.757Z,96604.98
2022-11-16T06:05:26.059Z,96596.42
2022-11-16T06:07:54.898Z,96586.52
2022-11-16T06:10:23.672Z,96579.98
2022-11-16T06:12:52.783Z,96583.96
2022-11-16T06:15:21.054Z,96580.53
2022-11-16T06:17:49.030Z,96579.52
2022-11-16T06:20:17.313Z,96575.69
2022-11-16T06:22:45.817Z,96574.73
2022-11-16T06:25:14.278Z,96575.51
2022-11-16T06:27:44.071Z,96574.88
2022-11-16T06:30:14.619Z,96570.08
2022-11-16T06:32:42.675Z,96572.41
2022-11-16T06:35:11.064Z,96576.48
2022-11-16T06:37:40.158Z,96572.08
2022-11-16T06:40:10.343Z,96569.77
2022-11-16T06:42:41.913Z,96572.30
2022-11-16T06:45:11.535Z,96568.56
2022-11-16T06:47:42.472Z,96565.14
2022-11-16T06:50:11.213Z,96568.79
2022-11-16T06:52:39.551Z,96566.20
2022-11-16T06:55:08.942Z,96567.23
2022-11-16T06:57:37.814Z,96564.89
2022-11-16T07:00:07.943Z,96572.56
2022-11-16T07:02:37.864Z,96579.73
2022-11-16T07:05:07.353Z,96570.63
2022-11-16T07:07:35.282Z,96555.11
2022-11-16T07:10:04.343Z,96555.84
2022-11-16T07:12:32.413Z,96566.48
2022-11-16T07:15:00.954Z,96566.09
2022-11-16T07:17:30.200Z,96563.19
2022-11-16T07:19:59.295Z,96565.11
2022-11-16T07:22:27.676Z,96564.66
2022-11-16T07:24:55.752Z,96566.76
2022-11-16T07:27:24.225Z,96564.90
2022-11-16T07:29:52.571Z,96555.91
2022-11-16T07:32:34.604Z,96549.81
2022-11-16T07:35:12.502Z,96548.10
2022-11-16T07:37:40.887Z,96541.70
2022-11-16T07:40:09.776Z,96538.40
2022-11-16T07:42:38.509Z,96536.94
2022-11-16T07:45:10.180Z,96537.17
2022-11-16T07:47:41.469Z,96534.45
2022-11-16T07:50:11.589Z,96532.41
2022-11-16T07:52:39.661Z,96532.36
2022-11-16T07:55:11.513Z,96531.70
2022-11-16T07:57:39.742Z,96528.58
2022-11-16T08:00:10.021Z,96523.42
2022-11-16T08:02:51.511Z,96523.23
2022-11-16T08:05:21.381Z,96522.21
2022-11-16T08:07:50.516Z,96521.85
2022-11-16T08:10:19.238Z,96521.36
2022-11-16T08:12:47.672Z,96522.85
2022-11-16T08:15:15.836Z,96518.42
2022-11-16T08:17:43.981Z,96518.48
2022-11-16T08:20:13.142Z,96517.55
2022-11-16T08:22:41.507Z,96514.77
2022-11-16T08:25:09.954Z,96512.77
2022-11-16T08:27:39.394Z,96508.77
2022-11-16T08:30:09.839Z,96504.10
2022-11-16T08:32:39.052Z,96504.48
2022-11-16T08:35:07.910Z,96501.84
2022-11-16T08:37:36.186Z,96496.76
2022-11-16T08:40:05.178Z,96492.30
2022-11-16T08:42:40.771Z,96493.67
2022-11-16T08:45:12.044Z,96490.27
2022-11-16T08:47:40.149Z,96483.98
2022-11-16T08:50:09.316Z,96484.70
2022-11-16T08:52:37.416Z,96483.14
2022-11-16T08:55:06.922Z,96488.79
2022-11-16T08:57:35.191Z,96490.73
2022-11-16T09:00:08.009Z,96485.09
2022-11-16T09:02:35.887Z,96483.15
2022-11-16T09:05:05.245Z,96481.41
2022-11-16T09:07:33.197Z,96479.55
2022-11-16T09:10:01.697Z,96478.24
2022-11-16T09:12:29.870Z,96477.88
2022-11-16T09:14:58.556Z,96474.69
2022-11-16T09:17:26.526Z,96475.11
2022-11-16T09:19:54.496Z,96475.70
2022-11-16T09:22:22.833Z,96474.22
2022-11-16T09:24:50.749Z,96478.20
2022-11-16T09:27:18.676Z,96482.64
2022-11-16T09:29:46.688Z,96481.30
2022-11-16T09:32:14.760Z,96477.95
2022-11-16T09:34:43.132Z,96471.11
2022-11-16T09:37:11.928Z,96464.78
2022-11-16T09:39:40.301Z,96459.06
2022-11-16T09:42:12.159Z,96462.40
2022-11-16T09:44:49.469Z,96467.33
2022-11-16T09:47:40.735Z,96463.45
2022-11-16T09:50:29.425Z,96461.15
2022-11-16T09:53:05.385Z,96460.11
2022-11-16T09:55:52.920Z,96461.05
2022-11-16T09:58:28.048Z,96459.63
2022-11-16T10:01:02.353Z,96453.30
2022-11-16T10:03:38.493Z,96445.94
2022-11-16T10:06:15.547Z,96447.71
2022-11-16T10:08:50.134Z,96444.74
2022-11-16T10:12:03.364Z,96435.95
2022-11-16T10:14:49.479Z,96427.94
2022-11-16T10:17:34.987Z,96422.25
2022-11-16T10:20:32.807Z,96418.70
2022-11-16T10:23:00.877Z,96416.16
2022-11-16T10:25:37.149Z,96412.15
2022-11-16T10:28:45.188Z,96408.71
2022-11-16T10:31:52.616Z,96403.48
2022-11-16T10:34:25.334Z,96400.69
2022-11-16T10:36:58.540Z,96396.04
2022-11-16T10:39:27.721Z,96394.95
2022-11-16T10:41:57.527Z,96391.25
2022-11-16T10:44:25.550Z,96384.88
2022-11-16T10:47:03.071Z,96376.48
2022-11-16T10:49:34.142Z,96376.78
2022-11-16T10:52:02.670Z,96377.25
2022-11-16T10:54:30.582Z,96370.88
2022-11-16T10:57:14.354Z,96365.19
2022-11-16T10:59:48.518Z,96364.04
2022-11-16T11:02:36.352Z,96358.20
2022-11-16T11:05:16.940Z,96360.92
2022-11-16T11:07:52.101Z,96361.32
2022-11-16T11:10:32.852Z,96356.81
2022-11-16T11:13:25.197Z,96355.29
2022-11-16T11:16:15.554Z,96349.27
2022-11-16T11:18:43.579Z,96345.42
2022-11-16T11:21:19.376Z,96347.58
2022-11-16T11:23:54.390Z,96348.89
2022-11-16T11:26:36.267Z,96348.46
2022-11-16T11:29:21.005Z,96349.20
2022-11-16T11:31:53.172Z,96347.90
2022-11-16T11:34:26.140Z,96345.00
2022-11-16T11:37:01.608Z,96345.45
2022-11-16T11:39:33.235Z,96345.16
2022-11-16T11:42:01.223Z,96347.54
2022-11-16T11:45:01.862Z,96347.15
2022-11-16T11:47:57.485Z,96343.79
2022-11-16T11:50:38.971Z,96344.08
2022-11-16T11:53:43.087Z,96345.19
2022-11-16T11:56:13.212Z,96339.08
2022-11-16T11:58:42.816Z,96337.73
2022-11-16T12:01:33.109Z,96334.48
2022-11-16T12:04:39.486Z,96326.61
2022-11-16T12:07:34.554Z,96321.26
2022-11-16T12:10:06.043Z,96309.85
2022-11-16T12:13:08.426Z,96301.58
2022-11-16T12:15:42.836Z,96303.63
2022-11-16T12:18:32.295Z,96299.73
2022-11-16T12:21:14.516Z,96295.54
2022-11-16T12:24:04.266Z,96296.68
2022-11-16T12:26:53.778Z,96299.12
2022-11-16T12:29:32.075Z,96298.62
2022-11-16T12:32:12.224Z,96296.17
2022-11-16T12:34:55.133Z,96298.27
2022-11-16T12:37:30.666Z,96295.24
2022-11-16T12:40:17.502Z,96292.73
2022-11-16T12:42:48.052Z,96283.20
2022-11-16T12:45:40.896Z,96282.30
2022-11-16T12:48:18.276Z,96281.48
2022-11-16T12:50:52.221Z,96277.96
2022-11-16T12:53:39.815Z,96275.67
2022-11-16T12:56:23.411Z,96273.65
2022-11-16T12:59:15.794Z,96275.52
2022-11-16T13:02:11.726Z,96273.95
2022-11-16T13:04:46.137Z,96273.40
2022-11-16T13:07:24.596Z,96272.49
2022-11-16T13:10:03.308Z,96267.46
2022-11-16T13:12:32.983Z,96266.39
2022-11-16T13:15:03.738Z,96265.79
2022-11-16T13:17:37.066Z,96268.68
2022-11-16T13:20:25.980Z,96267.40
2022-11-16T13:23:03.875Z,96266.45
2022-11-16T13:25:47.367Z,96264.77
2022-11-16T13:28:26.206Z,96263.41
2022-11-16T13:31:10.870Z,96261.95
2022-11-16T13:33:51.211Z,96258.83
2022-11-16T13:36:39.425Z,96253.97
2022-11-16T13:39:08.605Z,96253.33
2022-11-16T13:41:42.862Z,96249.60
2022-11-16T13:44:22.865Z,96247.02
2022-11-16T13:46:56.972Z,96247.39
2022-11-16T13:49:39.184Z,96243.25
2022-11-16T13:52:35.643Z,96241.33
2022-11-16T13:55:10.763Z,96242.40
2022-11-16T13:57:41.312Z,96241.08
2022-11-16T14:00:11.795Z,96240.19
2022-11-16T14:02:42.141Z,96238.75
2022-11-16T14:05:14.308Z,96238.16
2022-11-16T14:07:47.396Z,96239.08
2022-11-16T14:10:45.073Z,96233.94
2022-11-16T14:13:37.615Z,96233.23
2022-11-16T14:16:17.975Z,96232.47
2022-11-16T14:18:51.162Z,96232.88
2022-11-16T14:21:44.023Z,96233.14
2022-11-16T14:24:35.971Z,96236.11
2022-11-16T14:27:40.584Z,96236.66
2022-11-16T14:30:50.164Z,96232.89
2022-11-16T14:33:30.183Z,96232.53
2022-11-16T14:35:59.685Z,96231.19
2022-11-16T14:38:34.080Z,96224.98
2022-11-16T14:41:06.287Z,96219.45
2022-11-16T14:43:44.651Z,96215.31
2022-11-16T14:46:30.272Z,96209.64
2022-11-16T14:49:01.170Z,96206.91
2022-11-16T14:51:35.885Z,96204.58
2022-11-16T14:54:15.187Z,96204.02
2022-11-16T14:56:59.320Z,96207.55
2022-11-16T14:59:28.736Z,96207.11
2022-11-16T15:01:57.810Z,96198.37
2022-11-16T15:04:27.317Z,96198.69
2022-11-16T15:07:02.629Z,96200.84
2022-11-16T15:09:38.736Z,96205.05
2022-11-16T15:12:33.207Z,96207.97
2022-11-16T15:15:08.074Z,96202.77
2022-11-16T15:17:36.824Z,96200.01
2022-11-16T15:20:22.388Z,96200.20
2022-11-16T15:23:01.440Z,96202.30
2022-11-16T15:25:36.680Z,96195.15
2022-11-16T15:28:13.770Z,96191.67
2022-11-16T15:30:52.698Z,96191.55
2022-11-16T15:33:29.247Z,96187.36
2022-11-16T15:35:57.852Z,96184.07
2022-11-16T15:38:28.168Z,96177.04
2022-11-16T15:41:06.490Z,96172.86
2022-11-16T15:43:45.042Z,96173.92
2022-11-16T15:46:27.720Z,96173.35
2022-11-16T15:48:56.446Z,96168.54
2022-11-16T15:51:24.777Z,96170.36
2022-11-16T15:53:55.800Z,96171.73
2022-11-16T15:56:26.479Z,96176.20
2022-11-16T15:58:57.007Z,96176.32
2022-11-16T16:01:25.829Z,96175.11
2022-11-16T16:03:53.806Z,96175.93
2022-11-16T16:06:44.654Z,96172.39
2022-11-16T16:09:30.752Z,96163.75
2022-11-16T16:12:18.853Z,96153.63
2022-11-16T16:14:49.313Z,96153.02
2022-11-16T16:17:26.405Z,96151.25
2022-11-16T16:19:57.207Z,96149.31
2022-11-16T16:22:36.710Z,96143.52
2022-11-16T16:25:07.133Z,96137.30
2022-11-16T16:27:40.703Z,96132.37
2022-11-16T16:30:14.782Z,96126.99
2022-11-16T16:32:42.798Z,96120.11
2022-11-16T16:35:17.695Z,96122.30
2022-11-16T16:37:50.053Z,96127.89
2022-11-16T16:40:18.976Z,96127.70
2022-11-16T16:42:48.177Z,96126.60
2022-11-16T16:45:21.136Z,96124.73
2022-11-16T16:47:49.446Z,96116.27
2022-11-16T16:50:17.512Z,96116.34
2022-11-16T16:52:46.409Z,96117.05
2022-11-16T16:55:14.783Z,96111.76
2022-11-16T16:57:42.761Z,96111.69
2022-11-16T17:00:11.847Z,96112.22
2022-11-16T17:02:39.808Z,96108.05
2022-11-16T17:05:08.195Z,96105.75
2022-11-16T17:07:36.251Z,96106.25
2022-11-16T17:10:05.269Z,96102.20
2022-11-16T17:12:33.339Z,96103.80
2022-11-16T17:15:01.692Z,96106.51
2022-11-16T17:17:29.690Z,96110.23
2022-11-16T17:19:57.636Z,96113.11
2022-11-16T17:22:25.833Z,96108.98
2022-11-16T17:24:55.802Z,96115.05
2022-11-16T17:27:24.026Z,96114.10
2022-11-16T17:29:52.097Z,96116.42
2022-11-16T17:32:20.002Z,96113.70
2022-11-16T17:34:47.953Z,96111.98
2022-11-16T17:37:16.099Z,96108.83
2022-11-16T17:39:43.995Z,96105.56
2022-11-16T17:42:12.038Z,96102.61
2022-11-16T17:44:40.009Z,96099.27
2022-11-16T17:47:08.013Z,96102.71
2022-11-16T17:49:35.979Z,96101.41
2022-11-16T17:52:05.259Z,96101.58
2022-11-16T17:54:33.161Z,96100.80
2022-11-16T17:57:01.249Z,96097.64
2022-11-16T17:59:30.013Z,96093.41
2022-11-16T18:01:58.223Z,96083.73
2022-11-16T18:04:26.546Z,96086.73
2022-11-16T18:06:55.408Z,96088.12
2022-11-16T18:09:24.319Z,96081.73
2022-11-16T18:11:52.260Z,96078.91
2022-11-16T18:14:20.193Z,96076.22
2022-11-16T18:16:48.428Z,96076.22
2022-11-16T18:19:18.939Z,96072.38
2022-11-16T18:21:47.128Z,96070.07
2022-11-16T18:24:15.515Z,96070.54
2022-11-16T18:26:43.929Z,96068.75
2022-11-16T18:29:15.655Z,96067.95
2022-11-16T18:31:43.736Z,96068.52
2022-11-16T18:34:14.103Z,96060.38
2022-11-16T18:36:42.497Z,96058.77
2022-11-16T18:39:10.670Z,96058.00
2022-11-16T18:41:48.575Z,96056.92
2022-11-16T18:44:19.641Z,96056.91
2022-11-16T18:46:48.031Z,96057.45
2022-11-16T18:49:16.612Z,96057.66
2022-11-16T18:51:44.685Z,96054.55
2022-11-16T18:54:13.568Z,96052.47
2022-11-16T18:56:41.540Z,96046.94
2022-11-16T18:59:09.719Z,96043.09
2022-11-16T19:01:37.893Z,96043.40
2022-11-16T19:04:07.678Z,96046.25
2022-11-16T19:06:35.975Z,96048.88
2022-11-16T19:09:06.409Z,96052.71
2022-11-16T19:11:34.379Z,96051.73
2022-11-16T19:14:07.905Z,96055.88
2022-11-16T19:16:36.798Z,96050.63
2022-11-16T19:19:05.437Z,96049.07
2022-11-16T19:21:33.428Z,96053.25
2022-11-16T19:24:01.391Z,96044.74
2022-11-16T19:26:29.358Z,96040.13
2022-11-16T19:28:58.356Z,96049.02
2022-11-16T19:31:29.007Z,96059.02
2022-11-16T19:34:02.365Z,96055.94
2022-11-16T19:36:32.607Z,96047.94
2022-11-16T19:39:00.966Z,96044.63
2022-11-16T19:41:29.066Z,96040.89
2022-11-16T19:44:00.043Z,96041.27
2022-11-16T19:46:30.316Z,96043.48
2022-11-16T19:48:59.411Z,96041.42
2022-11-16T19:51:30.156Z,96037.58
2022-11-16T19:54:00.322Z,96030.77
2022-11-16T19:56:28.549Z,96025.61
2022-11-16T19:58:57.169Z,96025.06
2022-11-16T20:01:29.151Z,96022.52
2022-11-16T20:04:00.453Z,96019.05
2022-11-16T20:06:31.162Z,96014.95
2022-11-16T20:09:03.994Z,96017.01
2022-11-16T20:11:36.539Z,96008.84
2022-11-16T20:14:06.688Z,96001.07
2022-11-16T20:16:39.064Z,95996.05
2022-11-16T20:19:09.561Z,95994.65
2022-11-16T20:21:42.959Z,95993.09
2022-11-16T20:24:14.812Z,95994.06
2022-11-16T20:26:46.573Z,95990.41
2022-11-16T20:29:16.826Z,95990.00
2022-11-16T20:31:46.298Z,95990.56
2022-11-16T20:34:16.632Z,95989.78
2022-11-16T20:36:46.800Z,95983.24
2022-11-16T20:39:17.151Z,95980.19
2022-11-16T20:41:46.014Z,95981.08
2022-11-16T20:44:22.107Z,95977.85
2022-11-16T20:46:54.499Z,95977.27
2022-11-16T20:49:22.589Z,95974.63
2022-11-16T20:51:51.466Z,95973.15
2022-11-16T20:54:19.423Z,95968.07
2022-11-16T20:56:49.617Z,95967.30
2022-11-16T20:59:19.050Z,95963.61
2022-11-16T21:01:49.039Z,95957.14
2022-11-16T21:04:17.444Z,95949.84
2022-11-16T21:06:45.525Z,95946.45
2022-11-16T21:09:22.523Z,95944.37
2022-11-16T21:12:09.208Z,95943.48
2022-11-16T21:14:37.391Z,95936.52
2022-11-16T21:17:05.306Z,95935.75
2022-11-16T21:19:33.629Z,95936.77
2022-11-16T21:22:01.802Z,95936.19
2022-11-16T21:24:31.820Z,95935.80
2022-11-16T21:26:59.997Z,95934.66
2022-11-16T21:29:28.373Z,95928.15
2022-11-16T21:31:56.366Z,95927.30
2022-11-16T21:34:25.549Z,95928.38
2022-11-16T21:36:53.929Z,95928.29
2022-11-16T21:39:22.512Z,95925.15
2022-11-16T21:41:50.687Z,95921.68
2022-11-16T21:44:18.622Z,95919.84
2022-11-16T21:46:46.636Z,95917.30
2022-11-16T21:49:14.626Z,95910.83
2022-11-16T21:51:42.778Z,95910.89
2022-11-16T21:54:10.846Z,95908.38
2022-11-16T21:56:38.766Z,95910.86
2022-11-16T21:59:06.883Z,95907.94
2022-11-16T22:01:54.900Z,95903.70
2022-11-16T22:04:41.301Z,95899.11
2022-11-16T22:07:32.957Z,95893.80
2022-11-16T22:10:01.637Z,95891.72
2022-11-16T22:12:30.219Z,95888.15
2022-11-16T22:14:58.828Z,95890.07
2022-11-16T22:17:27.282Z,95884.16
2022-11-16T22:19:55.655Z,95878.65
2022-11-16T22:22:24.761Z,95878.11
2022-11-16T22:24:53.173Z,95877.61
2022-11-16T22:27:21.408Z,95876.64
2022-11-16T22:29:49.377Z,95877.55
2022-11-16T22:32:17.632Z,95875.21
2022-11-16T22:34:45.629Z,95870.55
2022-11-16T22:37:13.804Z,95867.98
2022-11-16T22:39:42.081Z,95865.16
2022-11-16T22:42:11.516Z,95860.70
2022-11-16T22:44:39.449Z,95852.35
2022-11-16T22:47:09.566Z,95848.63
2022-11-16T22:49:37.761Z,95842.22
2022-11-16T22:52:05.822Z,95847.30
2022-11-16T22:54:37.877Z,95844.77
2022-11-16T22:57:06.060Z,95842.39
2022-11-16T22:59:34.694Z,95842.86
2022-11-16T23:02:05.871Z,95841.80
2022-11-16T23:04:34.391Z,95843.51
2022-11-16T23:07:02.391Z,95836.85
2022-11-16T23:09:32.258Z,95837.65
2022-11-16T23:12:18.651Z,95831.14
2022-11-16T23:15:04.850Z,95826.25
2022-11-16T23:17:32.825Z,95824.35
2022-11-16T23:20:19.323Z,95822.91
2022-11-16T23:23:06.959Z,95822.98
2022-11-16T23:25:53.717Z,95825.39
2022-11-16T23:28:22.095Z,95827.02
2022-11-16T23:30:50.223Z,95826.12
2022-11-16T23:33:18.269Z,95817.52
2022-11-16T23:35:46.264Z,95809.29
2022-11-16T23:38:14.644Z,95805.63
2022-11-16T23:40:42.605Z,95799.77
2022-11-16T23:43:29.725Z,95796.33
2022-11-16T23:45:57.991Z,95791.52
2022-11-16T23:48:25.943Z,95796.52
2022-11-16T23:50:53.946Z,95799.30
2022-11-16T23:53:21.833Z,95800.79
2022-11-16T23:55:50.036Z,95797.36
2022-11-16T23:58:18.264Z,95798.63
